Virtuous Striker — C6XX6 — position and weather

sailwx.info

Track history (hours):
 
Tides and Currents Weather Stations Pressure Air Temp Water Temp Dewpoint Dewpoint Depression Visibility Wind Speed Wind Dir Waves Ship Positions

Virtuous Striker

Last reported at 2016-Apr-29 04:31 UTC. Time now 2016-Apr-29 06:06 UTC.
Position N 45°27' E 012°15'.

Length 190 m; draft 10 m.

Type: Cargo ship. MMSI: 311025100.

Date/timePositionNaut miles runAvg speedWind from/ knotsBaromVisibWave heightAir tempDewpointWater temp
2016-Apr-29 04:31N 45°27' E 012°15'0 0.0
2016-Apr-29 03:31N 45°27' E 012°15'0 0.0
2016-Apr-29 02:28N 45°27' E 012°15'0 0.0
2016-Apr-29 01:31N 45°27' E 012°15'0 0.0
2016-Apr-29 00:28N 45°27' E 012°15'0 0.0
2016-Apr-28 23:31N 45°27' E 012°15'0 0.0
2016-Apr-28 22:31N 45°27' E 012°15'0 0.0
2016-Apr-28 21:31N 45°27' E 012°15'0 0.0
2016-Apr-28 20:31N 45°27' E 012°15'0 0.0
2016-Apr-28 19:31N 45°27' E 012°15'0 0.0
2016-Apr-28 18:31N 45°27' E 012°15'0 0.0
2016-Apr-28 17:31N 45°27' E 012°15'0 0.0
2016-Apr-28 16:31N 45°27' E 012°15'0 0.0
2016-Apr-28 15:31N 45°27' E 012°15'0 0.0
2016-Apr-28 14:31N 45°27' E 012°15'0 0.0
2016-Apr-28 13:31N 45°27' E 012°15'0 0.0
2016-Apr-28 12:31N 45°27' E 012°15'0 0.0
2016-Apr-28 11:31N 45°27' E 012°15'0 0.0
2016-Apr-28 10:31N 45°27' E 012°15'0 0.0
2016-Apr-28 09:31N 45°27' E 012°15'0 0.0
2016-Apr-28 08:28N 45°27' E 012°15'0 0.0
2016-Apr-28 07:31N 45°27' E 012°15'0 0.0
2016-Apr-28 06:32N 45°27' E 012°15'3 3.1
2016-Apr-28 05:33N 45°24' E 012°16'7 6.6
2016-Apr-28 04:34N 45°19' E 012°22'5 4.5
2016-Apr-28 03:34N 45°21' E 012°29'0 0.2
2016-Apr-28 02:31N 45°21' E 012°29'0 0.0
2016-Apr-28 01:22N 45°21' E 012°29'0 0.0
2016-Apr-28 00:31N 45°21' E 012°29'0 0.0
2016-Apr-27 23:31N 45°21' E 012°29'0 0.0
2016-Apr-27 22:31N 45°21' E 012°29'0 0.5
2016-Apr-27 21:34N 45°20' E 012°29'6 6.1
2016-Apr-27 20:33N 45°19' E 012°37'1414.0
2016-Apr-27 19:32N 45°25' E 012°55'  
2016-Apr-22 10:34N 36°22' E 014°45'1312.9
2016-Apr-22 09:33N 36°26' E 014°29'1312.9
2016-Apr-22 08:33N 36°29' E 014°14'1313.0
2016-Apr-22 07:33N 36°32' E 013°59'1313.4
2016-Apr-22 06:33N 36°37' E 013°43'1513.8
2016-Apr-22 05:28N 36°41' E 013°25'1313.9
2016-Apr-22 04:32N 36°45' E 013°09'7113.5
2016-Apr-21 23:17N 37°07' E 011°45'  
2016-Apr-19 07:34N 35°59' W 005°18'  
Track history (hours):
 
Tides and Currents Weather Stations Pressure Air Temp Water Temp Dewpoint Dewpoint Depression Visibility Wind Speed Wind Dir Waves Ship Positions

Virtuous Striker

Last reported at 2016-Apr-29 04:31 UTC. Time now 2016-Apr-29 06:06 UTC.
Position N 45°27' E 012°15'.

Length 190 m; draft 10 m.

Type: Cargo ship. MMSI: 311025100.

Date/timePositionNaut miles runAvg speedWind from/ knotsBaromVisibWave heightAir tempDewpointWater temp
2016-Apr-29 04:31N 45°27' E 012°15'0 0.0
2016-Apr-29 03:31N 45°27' E 012°15'0 0.0
2016-Apr-29 02:28N 45°27' E 012°15'0 0.0
2016-Apr-29 01:31N 45°27' E 012°15'0 0.0
2016-Apr-29 00:28N 45°27' E 012°15'0 0.0
2016-Apr-28 23:31N 45°27' E 012°15'0 0.0
2016-Apr-28 22:31N 45°27' E 012°15'0 0.0
2016-Apr-28 21:31N 45°27' E 012°15'0 0.0
2016-Apr-28 20:31N 45°27' E 012°15'0 0.0
2016-Apr-28 19:31N 45°27' E 012°15'0 0.0
2016-Apr-28 18:31N 45°27' E 012°15'0 0.0
2016-Apr-28 17:31N 45°27' E 012°15'0 0.0
2016-Apr-28 16:31N 45°27' E 012°15'0 0.0
2016-Apr-28 15:31N 45°27' E 012°15'0 0.0
2016-Apr-28 14:31N 45°27' E 012°15'0 0.0
2016-Apr-28 13:31N 45°27' E 012°15'0 0.0
2016-Apr-28 12:31N 45°27' E 012°15'0 0.0
2016-Apr-28 11:31N 45°27' E 012°15'0 0.0
2016-Apr-28 10:31N 45°27' E 012°15'0 0.0
2016-Apr-28 09:31N 45°27' E 012°15'0 0.0
2016-Apr-28 08:28N 45°27' E 012°15'0 0.0
2016-Apr-28 07:31N 45°27' E 012°15'0 0.0
2016-Apr-28 06:32N 45°27' E 012°15'3 3.1
2016-Apr-28 05:33N 45°24' E 012°16'7 6.6
2016-Apr-28 04:34N 45°19' E 012°22'5 4.5
2016-Apr-28 03:34N 45°21' E 012°29'0 0.2
2016-Apr-28 02:31N 45°21' E 012°29'0 0.0
2016-Apr-28 01:22N 45°21' E 012°29'0 0.0
2016-Apr-28 00:31N 45°21' E 012°29'0 0.0
2016-Apr-27 23:31N 45°21' E 012°29'0 0.0
2016-Apr-27 22:31N 45°21' E 012°29'0 0.5
2016-Apr-27 21:34N 45°20' E 012°29'6 6.1
2016-Apr-27 20:33N 45°19' E 012°37'1414.0
2016-Apr-27 19:32N 45°25' E 012°55'  
2016-Apr-22 10:34N 36°22' E 014°45'1312.9
2016-Apr-22 09:33N 36°26' E 014°29'1312.9
2016-Apr-22 08:33N 36°29' E 014°14'1313.0
2016-Apr-22 07:33N 36°32' E 013°59'1313.4
2016-Apr-22 06:33N 36°37' E 013°43'1513.8
2016-Apr-22 05:28N 36°41' E 013°25'1313.9
2016-Apr-22 04:32N 36°45' E 013°09'7113.5
2016-Apr-21 23:17N 37°07' E 011°45'  
2016-Apr-19 07:34N 35°59' W 005°18'  

Dump ship's entire track history